sensor_id;sensor_type;location;lat;lon;timestamp;temperature;humidity
3690;DHT22;1861;50.240;8.596;2022-07-30T00:00:34;21.50;95.10
3690;DHT22;1861;50.240;8.596;2022-07-30T00:03:02;21.50;95.00
3690;DHT22;1861;50.240;8.596;2022-07-30T00:05:32;21.60;94.90
3690;DHT22;1861;50.240;8.596;2022-07-30T00:08:00;21.60;94.80
3690;DHT22;1861;50.240;8.596;2022-07-30T00:10:28;21.60;94.70
3690;DHT22;1861;50.240;8.596;2022-07-30T00:12:56;21.60;94.60
3690;DHT22;1861;50.240;8.596;2022-07-30T00:15:25;21.60;94.50
3690;DHT22;1861;50.240;8.596;2022-07-30T00:17:53;21.60;94.50
3690;DHT22;1861;50.240;8.596;2022-07-30T00:20:22;21.50;94.60
3690;DHT22;1861;50.240;8.596;2022-07-30T00:22:55;21.50;94.70
3690;DHT22;1861;50.240;8.596;2022-07-30T00:25:24;21.50;94.60
3690;DHT22;1861;50.240;8.596;2022-07-30T00:27:52;21.50;94.40
3690;DHT22;1861;50.240;8.596;2022-07-30T00:30:21;21.50;94.20
3690;DHT22;1861;50.240;8.596;2022-07-30T00:32:50;21.50;94.30
3690;DHT22;1861;50.240;8.596;2022-07-30T00:35:18;21.50;94.20
3690;DHT22;1861;50.240;8.596;2022-07-30T00:37:46;21.40;94.30
3690;DHT22;1861;50.240;8.596;2022-07-30T00:40:16;21.40;94.30
3690;DHT22;1861;50.240;8.596;2022-07-30T00:42:45;21.40;94.30
3690;DHT22;1861;50.240;8.596;2022-07-30T00:45:15;21.30;94.30
3690;DHT22;1861;50.240;8.596;2022-07-30T00:47:43;21.40;94.20
3690;DHT22;1861;50.240;8.596;2022-07-30T00:50:13;21.50;94.00
3690;DHT22;1861;50.240;8.596;2022-07-30T00:52:42;21.50;93.90
3690;DHT22;1861;50.240;8.596;2022-07-30T00:55:12;21.40;93.80
3690;DHT22;1861;50.240;8.596;2022-07-30T00:57:43;21.40;93.70
3690;DHT22;1861;50.240;8.596;2022-07-30T01:00:14;21.40;93.70
3690;DHT22;1861;50.240;8.596;2022-07-30T01:02:42;21.40;93.70
3690;DHT22;1861;50.240;8.596;2022-07-30T01:05:11;21.40;93.80
3690;DHT22;1861;50.240;8.596;2022-07-30T01:07:39;21.30;93.90
3690;DHT22;1861;50.240;8.596;2022-07-30T01:10:11;21.20;93.90
3690;DHT22;1861;50.240;8.596;2022-07-30T01:12:40;21.20;94.00
3690;DHT22;1861;50.240;8.596;2022-07-30T01:15:10;21.20;94.10
3690;DHT22;1861;50.240;8.596;2022-07-30T01:17:39;21.10;94.10
3690;DHT22;1861;50.240;8.596;2022-07-30T01:20:12;21.20;94.10
3690;DHT22;1861;50.240;8.596;2022-07-30T01:22:46;21.10;94.00
3690;DHT22;1861;50.240;8.596;2022-07-30T01:25:26;21.00;94.00
3690;DHT22;1861;50.240;8.596;2022-07-30T01:27:59;21.10;94.00
3690;DHT22;1861;50.240;8.596;2022-07-30T01:30:31;21.10;94.00
3690;DHT22;1861;50.240;8.596;2022-07-30T01:33:02;21.10;93.90
3690;DHT22;1861;50.240;8.596;2022-07-30T01:35:32;21.10;93.90
3690;DHT22;1861;50.240;8.596;2022-07-30T01:38:03;21.10;93.70
3690;DHT22;1861;50.240;8.596;2022-07-30T01:40:33;21.10;93.50
3690;DHT22;1861;50.240;8.596;2022-07-30T01:43:05;21.10;93.50
3690;DHT22;1861;50.240;8.596;2022-07-30T01:45:35;21.20;93.40
3690;DHT22;1861;50.240;8.596;2022-07-30T01:48:12;21.20;93.30
3690;DHT22;1861;50.240;8.596;2022-07-30T01:50:43;21.10;93.20
3690;DHT22;1861;50.240;8.596;2022-07-30T01:53:14;21.10;93.10
3690;DHT22;1861;50.240;8.596;2022-07-30T01:55:44;21.10;93.30
3690;DHT22;1861;50.240;8.596;2022-07-30T01:58:17;21.10;93.40
3690;DHT22;1861;50.240;8.596;2022-07-30T02:00:54;21.10;93.40
3690;DHT22;1861;50.240;8.596;2022-07-30T02:03:25;21.10;93.50
3690;DHT22;1861;50.240;8.596;2022-07-30T02:05:59;21.10;93.40
3690;DHT22;1861;50.240;8.596;2022-07-30T02:08:35;21.00;93.50
3690;DHT22;1861;50.240;8.596;2022-07-30T02:11:07;21.00;93.60
3690;DHT22;1861;50.240;8.596;2022-07-30T02:13:42;21.00;93.50
3690;DHT22;1861;50.240;8.596;2022-07-30T02:16:15;21.00;93.50
3690;DHT22;1861;50.240;8.596;2022-07-30T02:18:49;20.90;93.60
3690;DHT22;1861;50.240;8.596;2022-07-30T02:21:25;20.90;93.60
3690;DHT22;1861;50.240;8.596;2022-07-30T02:24:06;20.80;93.60
3690;DHT22;1861;50.240;8.596;2022-07-30T02:26:37;20.80;93.70
3690;DHT22;1861;50.240;8.596;2022-07-30T02:29:08;20.90;93.60
3690;DHT22;1861;50.240;8.596;2022-07-30T02:31:39;20.80;93.60
3690;DHT22;1861;50.240;8.596;2022-07-30T02:34:09;20.80;93.60
3690;DHT22;1861;50.240;8.596;2022-07-30T02:36:40;20.90;93.60
3690;DHT22;1861;50.240;8.596;2022-07-30T02:39:12;20.80;93.50
3690;DHT22;1861;50.240;8.596;2022-07-30T02:41:41;20.80;93.50
3690;DHT22;1861;50.240;8.596;2022-07-30T02:44:17;20.80;93.50
3690;DHT22;1861;50.240;8.596;2022-07-30T02:46:48;20.80;93.50
3690;DHT22;1861;50.240;8.596;2022-07-30T02:49:29;20.80;93.50
3690;DHT22;1861;50.240;8.596;2022-07-30T02:51:59;20.80;93.50
3690;DHT22;1861;50.240;8.596;2022-07-30T02:54:29;20.80;93.50
3690;DHT22;1861;50.240;8.596;2022-07-30T02:57:00;20.70;93.50
3690;DHT22;1861;50.240;8.596;2022-07-30T02:59:32;20.70;93.50
3690;DHT22;1861;50.240;8.596;2022-07-30T03:02:03;20.60;93.50
3690;DHT22;1861;50.240;8.596;2022-07-30T03:04:35;20.60;93.50
3690;DHT22;1861;50.240;8.596;2022-07-30T03:07:04;20.60;93.40
3690;DHT22;1861;50.240;8.596;2022-07-30T03:09:35;20.60;93.40
3690;DHT22;1861;50.240;8.596;2022-07-30T03:12:19;20.60;93.40
3690;DHT22;1861;50.240;8.596;2022-07-30T03:14:51;20.50;93.30
3690;DHT22;1861;50.240;8.596;2022-07-30T03:17:23;20.50;93.30
3690;DHT22;1861;50.240;8.596;2022-07-30T03:19:54;20.50;93.40
3690;DHT22;1861;50.240;8.596;2022-07-30T03:22:24;20.50;93.40
3690;DHT22;1861;50.240;8.596;2022-07-30T03:25:00;20.50;93.50
3690;DHT22;1861;50.240;8.596;2022-07-30T03:27:30;20.50;93.60
3690;DHT22;1861;50.240;8.596;2022-07-30T03:30:00;20.50;93.50
3690;DHT22;1861;50.240;8.596;2022-07-30T03:32:29;20.50;93.60
3690;DHT22;1861;50.240;8.596;2022-07-30T03:34:59;20.50;93.50
3690;DHT22;1861;50.240;8.596;2022-07-30T03:37:34;20.50;93.60
3690;DHT22;1861;50.240;8.596;2022-07-30T03:40:04;20.50;93.60
3690;DHT22;1861;50.240;8.596;2022-07-30T03:42:33;20.50;93.60
3690;DHT22;1861;50.240;8.596;2022-07-30T03:45:07;20.50;93.50
3690;DHT22;1861;50.240;8.596;2022-07-30T03:47:37;20.50;93.50
3690;DHT22;1861;50.240;8.596;2022-07-30T03:50:07;20.40;93.50
3690;DHT22;1861;50.240;8.596;2022-07-30T03:52:37;20.40;93.50
3690;DHT22;1861;50.240;8.596;2022-07-30T03:55:10;20.40;93.50
3690;DHT22;1861;50.240;8.596;2022-07-30T03:57:44;20.30;93.60
3690;DHT22;1861;50.240;8.596;2022-07-30T04:00:15;20.30;93.50
3690;DHT22;1861;50.240;8.596;2022-07-30T04:02:48;20.40;93.50
3690;DHT22;1861;50.240;8.596;2022-07-30T04:05:32;20.40;93.60
3690;DHT22;1861;50.240;8.596;2022-07-30T04:08:07;20.40;93.60
3690;DHT22;1861;50.240;8.596;2022-07-30T04:10:37;20.40;93.70
3690;DHT22;1861;50.240;8.596;2022-07-30T04:13:27;20.40;93.60
3690;DHT22;1861;50.240;8.596;2022-07-30T04:16:00;20.40;93.60
3690;DHT22;1861;50.240;8.596;2022-07-30T04:18:52;20.40;93.60
3690;DHT22;1861;50.240;8.596;2022-07-30T04:21:23;20.40;93.60
3690;DHT22;1861;50.240;8.596;2022-07-30T04:23:53;20.40;93.70
3690;DHT22;1861;50.240;8.596;2022-07-30T04:26:33;20.40;93.70
3690;DHT22;1861;50.240;8.596;2022-07-30T04:29:05;20.40;93.70
3690;DHT22;1861;50.240;8.596;2022-07-30T04:31:36;20.30;93.70
3690;DHT22;1861;50.240;8.596;2022-07-30T04:34:33;20.30;93.70
3690;DHT22;1861;50.240;8.596;2022-07-30T04:37:04;20.30;93.70
3690;DHT22;1861;50.240;8.596;2022-07-30T04:39:32;20.30;93.70
3690;DHT22;1861;50.240;8.596;2022-07-30T04:42:00;20.30;93.70
3690;DHT22;1861;50.240;8.596;2022-07-30T04:44:34;20.30;93.60
3690;DHT22;1861;50.240;8.596;2022-07-30T04:47:24;20.40;93.60
3690;DHT22;1861;50.240;8.596;2022-07-30T04:50:16;20.40;93.60
3690;DHT22;1861;50.240;8.596;2022-07-30T04:52:47;20.40;93.90
3690;DHT22;1861;50.240;8.596;2022-07-30T04:55:22;20.30;93.60
3690;DHT22;1861;50.240;8.596;2022-07-30T04:57:51;20.30;93.70
3690;DHT22;1861;50.240;8.596;2022-07-30T05:00:20;20.30;93.60
3690;DHT22;1861;50.240;8.596;2022-07-30T05:02:51;20.30;93.70
3690;DHT22;1861;50.240;8.596;2022-07-30T05:05:21;20.30;93.60
3690;DHT22;1861;50.240;8.596;2022-07-30T05:07:53;20.30;93.70
3690;DHT22;1861;50.240;8.596;2022-07-30T05:10:22;20.30;93.80
3690;DHT22;1861;50.240;8.596;2022-07-30T05:12:50;20.30;93.80
3690;DHT22;1861;50.240;8.596;2022-07-30T05:15:21;20.30;93.80
3690;DHT22;1861;50.240;8.596;2022-07-30T05:18:06;20.30;93.90
3690;DHT22;1861;50.240;8.596;2022-07-30T05:20:38;20.40;93.90
3690;DHT22;1861;50.240;8.596;2022-07-30T05:23:13;20.40;93.90
3690;DHT22;1861;50.240;8.596;2022-07-30T05:25:47;20.40;93.90
3690;DHT22;1861;50.240;8.596;2022-07-30T05:28:26;20.40;94.00
3690;DHT22;1861;50.240;8.596;2022-07-30T05:30:58;20.50;94.00
3690;DHT22;1861;50.240;8.596;2022-07-30T05:33:28;20.50;94.10
3690;DHT22;1861;50.240;8.596;2022-07-30T05:36:09;20.50;94.20
3690;DHT22;1861;50.240;8.596;2022-07-30T05:38:39;20.50;94.20
3690;DHT22;1861;50.240;8.596;2022-07-30T05:41:27;20.60;94.40
3690;DHT22;1861;50.240;8.596;2022-07-30T05:44:25;20.60;94.40
3690;DHT22;1861;50.240;8.596;2022-07-30T05:46:54;20.60;94.40
3690;DHT22;1861;50.240;8.596;2022-07-30T05:49:23;20.60;94.50
3690;DHT22;1861;50.240;8.596;2022-07-30T05:51:55;20.70;94.50
3690;DHT22;1861;50.240;8.596;2022-07-30T05:54:25;20.70;94.50
3690;DHT22;1861;50.240;8.596;2022-07-30T05:57:11;20.80;94.60
3690;DHT22;1861;50.240;8.596;2022-07-30T05:59:39;20.70;94.70
3690;DHT22;1861;50.240;8.596;2022-07-30T06:02:09;20.80;94.80
3690;DHT22;1861;50.240;8.596;2022-07-30T06:04:57;20.80;95.00
3690;DHT22;1861;50.240;8.596;2022-07-30T06:07:25;20.80;95.00
3690;DHT22;1861;50.240;8.596;2022-07-30T06:09:56;20.90;95.00
3690;DHT22;1861;50.240;8.596;2022-07-30T06:12:27;20.90;95.10
3690;DHT22;1861;50.240;8.596;2022-07-30T06:14:57;20.90;95.20
3690;DHT22;1861;50.240;8.596;2022-07-30T06:17:29;20.90;95.20
3690;DHT22;1861;50.240;8.596;2022-07-30T06:20:16;20.90;95.40
3690;DHT22;1861;50.240;8.596;2022-07-30T06:23:02;21.00;95.40
3690;DHT22;1861;50.240;8.596;2022-07-30T06:25:46;20.90;95.50
3690;DHT22;1861;50.240;8.596;2022-07-30T06:28:15;21.00;95.50
3690;DHT22;1861;50.240;8.596;2022-07-30T06:31:03;21.00;95.50
3690;DHT22;1861;50.240;8.596;2022-07-30T06:33:32;21.00;95.60
3690;DHT22;1861;50.240;8.596;2022-07-30T06:36:01;21.00;95.50
3690;DHT22;1861;50.240;8.596;2022-07-30T06:38:38;21.10;95.50
3690;DHT22;1861;50.240;8.596;2022-07-30T06:41:11;21.10;95.50
3690;DHT22;1861;50.240;8.596;2022-07-30T06:43:50;21.10;95.40
3690;DHT22;1861;50.240;8.596;2022-07-30T06:46:50;21.20;95.40
3690;DHT22;1861;50.240;8.596;2022-07-30T06:49:22;21.20;95.20
3690;DHT22;1861;50.240;8.596;2022-07-30T06:51:52;21.20;94.90
3690;DHT22;1861;50.240;8.596;2022-07-30T06:54:20;21.20;94.60
3690;DHT22;1861;50.240;8.596;2022-07-30T06:57:00;21.30;94.50
3690;DHT22;1861;50.240;8.596;2022-07-30T06:59:28;21.30;94.50
3690;DHT22;1861;50.240;8.596;2022-07-30T07:02:17;21.30;94.50
3690;DHT22;1861;50.240;8.596;2022-07-30T07:05:12;21.30;94.50
3690;DHT22;1861;50.240;8.596;2022-07-30T07:07:47;21.40;94.40
3690;DHT22;1861;50.240;8.596;2022-07-30T07:10:29;21.40;94.00
3690;DHT22;1861;50.240;8.596;2022-07-30T07:13:18;21.40;93.10
3690;DHT22;1861;50.240;8.596;2022-07-30T07:15:46;21.50;93.20
3690;DHT22;1861;50.240;8.596;2022-07-30T07:18:19;21.50;93.00
3690;DHT22;1861;50.240;8.596;2022-07-30T07:20:54;21.50;93.00
3690;DHT22;1861;50.240;8.596;2022-07-30T07:23:24;21.60;92.90
3690;DHT22;1861;50.240;8.596;2022-07-30T07:26:09;21.60;92.90
3690;DHT22;1861;50.240;8.596;2022-07-30T07:28:38;21.70;92.80
3690;DHT22;1861;50.240;8.596;2022-07-30T07:31:07;21.70;92.40
3690;DHT22;1861;50.240;8.596;2022-07-30T07:33:36;21.60;92.10
3690;DHT22;1861;50.240;8.596;2022-07-30T07:36:06;21.70;92.10
3690;DHT22;1861;50.240;8.596;2022-07-30T07:38:35;21.70;92.10
3690;DHT22;1861;50.240;8.596;2022-07-30T07:41:03;21.70;92.00
3690;DHT22;1861;50.240;8.596;2022-07-30T07:43:33;21.70;91.80
3690;DHT22;1861;50.240;8.596;2022-07-30T07:46:01;21.70;91.90
3690;DHT22;1861;50.240;8.596;2022-07-30T07:48:32;21.70;92.10
3690;DHT22;1861;50.240;8.596;2022-07-30T07:51:26;21.80;91.60
3690;DHT22;1861;50.240;8.596;2022-07-30T07:54:17;21.80;91.60
3690;DHT22;1861;50.240;8.596;2022-07-30T07:56:49;21.80;91.60
3690;DHT22;1861;50.240;8.596;2022-07-30T07:59:35;21.80;91.70
3690;DHT22;1861;50.240;8.596;2022-07-30T08:02:12;21.90;91.70
3690;DHT22;1861;50.240;8.596;2022-07-30T08:04:59;21.90;91.70
3690;DHT22;1861;50.240;8.596;2022-07-30T08:07:40;21.90;91.60
3690;DHT22;1861;50.240;8.596;2022-07-30T08:10:29;21.90;91.70
3690;DHT22;1861;50.240;8.596;2022-07-30T08:13:32;21.90;91.60
3690;DHT22;1861;50.240;8.596;2022-07-30T08:16:48;21.90;91.60
3690;DHT22;1861;50.240;8.596;2022-07-30T08:19:24;21.90;91.30
3690;DHT22;1861;50.240;8.596;2022-07-30T08:22:15;21.90;91.40
3690;DHT22;1861;50.240;8.596;2022-07-30T08:24:43;22.00;91.50
3690;DHT22;1861;50.240;8.596;2022-07-30T08:27:13;22.00;91.50
3690;DHT22;1861;50.240;8.596;2022-07-30T08:29:41;22.00;91.60
3690;DHT22;1861;50.240;8.596;2022-07-30T08:32:09;22.00;91.60
3690;DHT22;1861;50.240;8.596;2022-07-30T08:34:39;22.00;91.70
3690;DHT22;1861;50.240;8.596;2022-07-30T08:37:07;22.00;91.70
3690;DHT22;1861;50.240;8.596;2022-07-30T08:39:40;22.10;91.80
3690;DHT22;1861;50.240;8.596;2022-07-30T08:42:08;22.00;91.60
3690;DHT22;1861;50.240;8.596;2022-07-30T08:44:39;22.10;91.70
3690;DHT22;1861;50.240;8.596;2022-07-30T08:47:09;22.10;91.60
3690;DHT22;1861;50.240;8.596;2022-07-30T08:49:57;22.10;91.70
3690;DHT22;1861;50.240;8.596;2022-07-30T08:52:35;22.10;91.70
3690;DHT22;1861;50.240;8.596;2022-07-30T08:55:06;22.10;91.60
3690;DHT22;1861;50.240;8.596;2022-07-30T08:57:34;22.10;91.50
3690;DHT22;1861;50.240;8.596;2022-07-30T09:00:06;22.20;91.50
3690;DHT22;1861;50.240;8.596;2022-07-30T09:02:35;22.20;91.50
3690;DHT22;1861;50.240;8.596;2022-07-30T09:05:05;22.20;91.40
3690;DHT22;1861;50.240;8.596;2022-07-30T09:07:34;22.20;91.50
3690;DHT22;1861;50.240;8.596;2022-07-30T09:10:04;22.20;91.40
3690;DHT22;1861;50.240;8.596;2022-07-30T09:12:36;22.20;91.70
3690;DHT22;1861;50.240;8.596;2022-07-30T09:15:10;22.20;91.40
3690;DHT22;1861;50.240;8.596;2022-07-30T09:17:50;22.30;91.50
3690;DHT22;1861;50.240;8.596;2022-07-30T09:20:22;22.30;91.50
3690;DHT22;1861;50.240;8.596;2022-07-30T09:22:52;22.30;91.60
3690;DHT22;1861;50.240;8.596;2022-07-30T09:25:48;22.20;91.50
3690;DHT22;1861;50.240;8.596;2022-07-30T09:28:35;22.30;91.50
3690;DHT22;1861;50.240;8.596;2022-07-30T09:31:14;22.30;91.40
3690;DHT22;1861;50.240;8.596;2022-07-30T09:34:25;22.30;91.30
3690;DHT22;1861;50.240;8.596;2022-07-30T09:37:03;22.40;91.50
3690;DHT22;1861;50.240;8.596;2022-07-30T09:39:52;22.40;91.40
3690;DHT22;1861;50.240;8.596;2022-07-30T09:42:45;22.40;91.50
3690;DHT22;1861;50.240;8.596;2022-07-30T09:45:14;22.40;91.50
3690;DHT22;1861;50.240;8.596;2022-07-30T09:47:47;22.40;91.50
3690;DHT22;1861;50.240;8.596;2022-07-30T09:50:18;22.40;91.50
3690;DHT22;1861;50.240;8.596;2022-07-30T09:53:06;22.40;91.50
3690;DHT22;1861;50.240;8.596;2022-07-30T09:55:54;22.50;91.60
3690;DHT22;1861;50.240;8.596;2022-07-30T09:58:36;22.50;91.60
3690;DHT22;1861;50.240;8.596;2022-07-30T10:01:05;22.50;91.40
3690;DHT22;1861;50.240;8.596;2022-07-30T10:03:56;22.50;91.10
3690;DHT22;1861;50.240;8.596;2022-07-30T10:06:42;22.50;91.10
3690;DHT22;1861;50.240;8.596;2022-07-30T10:09:26;22.60;91.00
3690;DHT22;1861;50.240;8.596;2022-07-30T10:11:57;22.60;90.80
3690;DHT22;1861;50.240;8.596;2022-07-30T10:14:31;22.60;90.60
3690;DHT22;1861;50.240;8.596;2022-07-30T10:17:09;22.60;90.30
3690;DHT22;1861;50.240;8.596;2022-07-30T10:19:41;22.60;90.00
3690;DHT22;1861;50.240;8.596;2022-07-30T10:22:33;22.70;90.20
3690;DHT22;1861;50.240;8.596;2022-07-30T10:25:22;22.70;90.00
3690;DHT22;1861;50.240;8.596;2022-07-30T10:28:28;22.70;89.60
3690;DHT22;1861;50.240;8.596;2022-07-30T10:31:00;22.70;89.00
3690;DHT22;1861;50.240;8.596;2022-07-30T10:33:48;22.80;90.10
3690;DHT22;1861;50.240;8.596;2022-07-30T10:36:19;22.80;90.20
3690;DHT22;1861;50.240;8.596;2022-07-30T10:38:50;22.80;90.30
3690;DHT22;1861;50.240;8.596;2022-07-30T10:41:32;22.80;90.20
3690;DHT22;1861;50.240;8.596;2022-07-30T10:44:32;22.80;90.30
3690;DHT22;1861;50.240;8.596;2022-07-30T10:47:07;22.90;90.40
3690;DHT22;1861;50.240;8.596;2022-07-30T10:49:36;22.90;90.30
3690;DHT22;1861;50.240;8.596;2022-07-30T10:52:10;22.90;90.30
3690;DHT22;1861;50.240;8.596;2022-07-30T10:54:40;22.90;90.40
3690;DHT22;1861;50.240;8.596;2022-07-30T10:57:12;22.90;90.40
3690;DHT22;1861;50.240;8.596;2022-07-30T11:00:12;22.90;89.20
3690;DHT22;1861;50.240;8.596;2022-07-30T11:03:12;23.00;90.00
3690;DHT22;1861;50.240;8.596;2022-07-30T11:05:43;23.00;89.20
3690;DHT22;1861;50.240;8.596;2022-07-30T11:08:36;23.00;89.10
3690;DHT22;1861;50.240;8.596;2022-07-30T11:11:42;23.10;89.00
3690;DHT22;1861;50.240;8.596;2022-07-30T11:14:54;23.10;87.80
3690;DHT22;1861;50.240;8.596;2022-07-30T11:17:59;23.10;88.40
3690;DHT22;1861;50.240;8.596;2022-07-30T11:20:28;23.10;88.10
3690;DHT22;1861;50.240;8.596;2022-07-30T11:23:12;23.00;87.80
3690;DHT22;1861;50.240;8.596;2022-07-30T11:26:03;23.00;87.30
3690;DHT22;1861;50.240;8.596;2022-07-30T11:28:35;23.00;86.20
3690;DHT22;1861;50.240;8.596;2022-07-30T11:31:23;23.10;85.90
3690;DHT22;1861;50.240;8.596;2022-07-30T11:34:25;23.20;85.40
3690;DHT22;1861;50.240;8.596;2022-07-30T11:37:04;23.30;86.20
3690;DHT22;1861;50.240;8.596;2022-07-30T11:40:08;23.30;85.30
3690;DHT22;1861;50.240;8.596;2022-07-30T11:42:40;23.30;84.90
3690;DHT22;1861;50.240;8.596;2022-07-30T11:45:22;23.40;85.50
3690;DHT22;1861;50.240;8.596;2022-07-30T11:47:55;23.50;86.10
3690;DHT22;1861;50.240;8.596;2022-07-30T11:50:25;23.60;86.50
3690;DHT22;1861;50.240;8.596;2022-07-30T11:52:55;23.60;86.50
3690;DHT22;1861;50.240;8.596;2022-07-30T11:55:26;23.40;86.90
3690;DHT22;1861;50.240;8.596;2022-07-30T11:57:57;23.30;87.40
3690;DHT22;1861;50.240;8.596;2022-07-30T12:00:25;23.40;87.30
3690;DHT22;1861;50.240;8.596;2022-07-30T12:03:00;23.30;87.20
3690;DHT22;1861;50.240;8.596;2022-07-30T12:05:34;23.40;87.00
3690;DHT22;1861;50.240;8.596;2022-07-30T12:08:02;23.40;85.70
3690;DHT22;1861;50.240;8.596;2022-07-30T12:10:31;23.40;86.20
3690;DHT22;1861;50.240;8.596;2022-07-30T12:13:10;23.60;86.10
3690;DHT22;1861;50.240;8.596;2022-07-30T12:15:41;23.80;86.20
3690;DHT22;1861;50.240;8.596;2022-07-30T12:18:09;23.80;86.10
3690;DHT22;1861;50.240;8.596;2022-07-30T12:20:59;23.80;86.10
3690;DHT22;1861;50.240;8.596;2022-07-30T12:23:28;23.80;86.00
3690;DHT22;1861;50.240;8.596;2022-07-30T12:25:57;23.90;86.10
3690;DHT22;1861;50.240;8.596;2022-07-30T12:28:29;23.90;85.90
3690;DHT22;1861;50.240;8.596;2022-07-30T12:30:59;24.00;86.00
3690;DHT22;1861;50.240;8.596;2022-07-30T12:33:29;24.10;86.10
3690;DHT22;1861;50.240;8.596;2022-07-30T12:35:59;24.10;84.70
3690;DHT22;1861;50.240;8.596;2022-07-30T12:38:27;24.20;85.00
3690;DHT22;1861;50.240;8.596;2022-07-30T12:40:58;24.20;85.20
3690;DHT22;1861;50.240;8.596;2022-07-30T12:43:45;24.20;85.10
3690;DHT22;1861;50.240;8.596;2022-07-30T12:46:15;24.30;84.90
3690;DHT22;1861;50.240;8.596;2022-07-30T12:48:57;24.30;84.60
3690;DHT22;1861;50.240;8.596;2022-07-30T12:51:51;24.30;83.60
3690;DHT22;1861;50.240;8.596;2022-07-30T12:54:26;24.30;84.20
3690;DHT22;1861;50.240;8.596;2022-07-30T12:56:56;24.30;84.20
3690;DHT22;1861;50.240;8.596;2022-07-30T12:59:27;24.30;84.10
3690;DHT22;1861;50.240;8.596;2022-07-30T13:01:56;24.20;83.80
3690;DHT22;1861;50.240;8.596;2022-07-30T13:04:26;24.20;83.90
3690;DHT22;1861;50.240;8.596;2022-07-30T13:07:09;24.30;83.60
3690;DHT22;1861;50.240;8.596;2022-07-30T13:09:38;24.20;83.80
3690;DHT22;1861;50.240;8.596;2022-07-30T13:12:10;24.00;84.20
3690;DHT22;1861;50.240;8.596;2022-07-30T13:14:40;23.90;84.40
3690;DHT22;1861;50.240;8.596;2022-07-30T13:17:08;23.90;84.20
3690;DHT22;1861;50.240;8.596;2022-07-30T13:19:37;24.00;84.00
3690;DHT22;1861;50.240;8.596;2022-07-30T13:22:06;24.00;83.90
3690;DHT22;1861;50.240;8.596;2022-07-30T13:24:34;24.00;82.90
3690;DHT22;1861;50.240;8.596;2022-07-30T13:27:02;23.90;82.90
3690;DHT22;1861;50.240;8.596;2022-07-30T13:29:31;23.90;83.70
3690;DHT22;1861;50.240;8.596;2022-07-30T13:32:00;23.70;84.30
3690;DHT22;1861;50.240;8.596;2022-07-30T13:34:28;23.70;84.50
3690;DHT22;1861;50.240;8.596;2022-07-30T13:36:56;23.80;84.70
3690;DHT22;1861;50.240;8.596;2022-07-30T13:39:25;23.80;84.90
3690;DHT22;1861;50.240;8.596;2022-07-30T13:41:53;23.80;85.00
3690;DHT22;1861;50.240;8.596;2022-07-30T13:44:22;23.80;83.70
3690;DHT22;1861;50.240;8.596;2022-07-30T13:46:50;23.80;83.60
3690;DHT22;1861;50.240;8.596;2022-07-30T13:49:19;23.80;84.20
3690;DHT22;1861;50.240;8.596;2022-07-30T13:51:48;23.80;84.10
3690;DHT22;1861;50.240;8.596;2022-07-30T13:54:16;23.80;83.80
3690;DHT22;1861;50.240;8.596;2022-07-30T13:56:44;23.70;83.90
3690;DHT22;1861;50.240;8.596;2022-07-30T13:59:13;23.70;83.90
3690;DHT22;1861;50.240;8.596;2022-07-30T14:01:41;23.70;84.30
3690;DHT22;1861;50.240;8.596;2022-07-30T14:04:09;23.70;84.50
3690;DHT22;1861;50.240;8.596;2022-07-30T14:06:39;23.70;84.70
3690;DHT22;1861;50.240;8.596;2022-07-30T14:09:07;23.70;84.60
3690;DHT22;1861;50.240;8.596;2022-07-30T14:11:35;23.70;84.70
3690;DHT22;1861;50.240;8.596;2022-07-30T14:14:03;23.60;85.20
3690;DHT22;1861;50.240;8.596;2022-07-30T14:16:32;23.60;85.30
3690;DHT22;1861;50.240;8.596;2022-07-30T14:19:19;23.60;85.50
3690;DHT22;1861;50.240;8.596;2022-07-30T14:21:51;23.60;85.60
3690;DHT22;1861;50.240;8.596;2022-07-30T14:24:20;23.50;85.60
3690;DHT22;1861;50.240;8.596;2022-07-30T14:26:49;23.50;84.60
3690;DHT22;1861;50.240;8.596;2022-07-30T14:29:24;23.50;84.30
3690;DHT22;1861;50.240;8.596;2022-07-30T14:31:52;23.50;84.20
3690;DHT22;1861;50.240;8.596;2022-07-30T14:34:20;23.50;85.40
3690;DHT22;1861;50.240;8.596;2022-07-30T14:36:48;23.40;84.80
3690;DHT22;1861;50.240;8.596;2022-07-30T14:39:18;23.40;85.00
3690;DHT22;1861;50.240;8.596;2022-07-30T14:41:46;23.40;85.20
3690;DHT22;1861;50.240;8.596;2022-07-30T14:44:21;23.50;85.40
3690;DHT22;1861;50.240;8.596;2022-07-30T14:46:49;23.40;85.30
3690;DHT22;1861;50.240;8.596;2022-07-30T14:49:19;23.40;85.50
3690;DHT22;1861;50.240;8.596;2022-07-30T14:51:48;23.40;84.90
3690;DHT22;1861;50.240;8.596;2022-07-30T14:54:18;23.40;84.30
3690;DHT22;1861;50.240;8.596;2022-07-30T14:56:46;23.40;84.40
3690;DHT22;1861;50.240;8.596;2022-07-30T14:59:15;23.50;85.00
3690;DHT22;1861;50.240;8.596;2022-07-30T15:01:43;23.40;84.90
3690;DHT22;1861;50.240;8.596;2022-07-30T15:04:13;23.40;84.40
3690;DHT22;1861;50.240;8.596;2022-07-30T15:06:42;23.40;84.60
3690;DHT22;1861;50.240;8.596;2022-07-30T15:09:10;23.40;84.60
3690;DHT22;1861;50.240;8.596;2022-07-30T15:11:39;23.40;84.40
3690;DHT22;1861;50.240;8.596;2022-07-30T15:14:28;23.40;83.80
3690;DHT22;1861;50.240;8.596;2022-07-30T15:16:56;23.40;83.90
3690;DHT22;1861;50.240;8.596;2022-07-30T15:19:30;23.40;84.30
3690;DHT22;1861;50.240;8.596;2022-07-30T15:21:59;23.40;84.50
3690;DHT22;1861;50.240;8.596;2022-07-30T15:24:29;23.40;84.80
3690;DHT22;1861;50.240;8.596;2022-07-30T15:26:58;23.40;84.90
3690;DHT22;1861;50.240;8.596;2022-07-30T15:29:27;23.40;85.70
3690;DHT22;1861;50.240;8.596;2022-07-30T15:31:56;23.40;85.20
3690;DHT22;1861;50.240;8.596;2022-07-30T15:34:26;23.40;85.10
3690;DHT22;1861;50.240;8.596;2022-07-30T15:36:59;23.40;85.30
3690;DHT22;1861;50.240;8.596;2022-07-30T15:39:28;23.40;85.20
3690;DHT22;1861;50.240;8.596;2022-07-30T15:42:00;23.40;84.50
3690;DHT22;1861;50.240;8.596;2022-07-30T15:44:29;23.40;83.90
3690;DHT22;1861;50.240;8.596;2022-07-30T15:46:57;23.40;83.80
3690;DHT22;1861;50.240;8.596;2022-07-30T15:49:25;23.40;84.40
3690;DHT22;1861;50.240;8.596;2022-07-30T15:51:54;23.40;84.80
3690;DHT22;1861;50.240;8.596;2022-07-30T15:54:23;23.30;84.80
3690;DHT22;1861;50.240;8.596;2022-07-30T15:56:52;23.30;84.90
3690;DHT22;1861;50.240;8.596;2022-07-30T15:59:29;23.30;85.00
3690;DHT22;1861;50.240;8.596;2022-07-30T16:01:58;23.30;85.20
3690;DHT22;1861;50.240;8.596;2022-07-30T16:04:26;23.40;85.30
3690;DHT22;1861;50.240;8.596;2022-07-30T16:06:57;23.30;85.30
3690;DHT22;1861;50.240;8.596;2022-07-30T16:09:26;23.30;85.40
3690;DHT22;1861;50.240;8.596;2022-07-30T16:11:54;23.30;85.30
3690;DHT22;1861;50.240;8.596;2022-07-30T16:14:24;23.30;85.50
3690;DHT22;1861;50.240;8.596;2022-07-30T16:16:54;23.30;85.10
3690;DHT22;1861;50.240;8.596;2022-07-30T16:19:22;23.30;85.40
3690;DHT22;1861;50.240;8.596;2022-07-30T16:21:50;23.30;85.40
3690;DHT22;1861;50.240;8.596;2022-07-30T16:24:18;23.30;85.30
3690;DHT22;1861;50.240;8.596;2022-07-30T16:26:47;23.30;85.40
3690;DHT22;1861;50.240;8.596;2022-07-30T16:29:16;23.30;85.60
3690;DHT22;1861;50.240;8.596;2022-07-30T16:31:45;23.30;85.70
3690;DHT22;1861;50.240;8.596;2022-07-30T16:34:15;23.30;85.50
3690;DHT22;1861;50.240;8.596;2022-07-30T16:36:52;23.30;85.60
3690;DHT22;1861;50.240;8.596;2022-07-30T16:39:20;23.30;85.80
3690;DHT22;1861;50.240;8.596;2022-07-30T16:41:48;23.30;85.30
3690;DHT22;1861;50.240;8.596;2022-07-30T16:44:17;23.30;85.50
3690;DHT22;1861;50.240;8.596;2022-07-30T16:46:45;23.20;85.40